• Join FlightAware (Why Join?)
  • Login
  • US Flag 
04:04AM EDT


 

Airport Tracker/Info


-or-


 

Live Flight TrackerFlight Track Log ✈ EJM918 ✈ 21-Jun-2013 ✈ KBDL - KHPN

Flight Track Log - Related Links

Times and Time Zones

All times are in EDT time to prevent confusion due to time zone crossing. See the EJM918 flight status page for this flight to view local times or setup timezone preferences in your user account.

Time Position Orientation Groundspeed Altitude Reporting Facility
EDT Latitude Longitude Course Direction KTS MPH feet Rate Location/Type
05:08AM 41.9333 -72.6997 262° West 174 200 1,200  Level Boston Center
05:09AM 41.9247 -72.7778 262° West 195 224 5,500 4,260 Climbing Boston Center
05:10AM 41.9203 -72.8808 267° West 244 281 9,900 600 Climbing Boston Center
05:16AM 41.6950 -73.5450 267° West 362 417 9,700 -60 Descending FlightAware
05:16AM 41.6810 -73.5640 225° Southwest 362 417 9,700  Level FlightAware
05:17AM 41.6470 -73.6080 224° Southwest 345 397 9,700  Level FlightAware
05:17AM 41.6280 -73.6330 225° Southwest 318 366 9,700 -600 Level FlightAware
05:18AM 41.6030 -73.6650 224° Southwest 292 336 9,300 -960 Descending FlightAware
05:18AM 41.5710 -73.7070 224° Southwest 280 322 8,600 -1,260 Descending FlightAware
05:19AM 41.5350 -73.7530 224° Southwest 276 318 7,800 -1,500 Descending FlightAware
05:19AM 41.5090 -73.7860 224° Southwest 275 316 7,200 -1,200 Descending FlightAware
05:20AM 41.4794 -73.8247 224° Southwest 273 314 6,600 -900 Descending FlightAware ADS-B
05:25AM 41.1445 -73.7656 172° South 184 212 1,700 -840 Descending FlightAware ADS-B
05:26AM 41.1500 -73.7667 242° Southwest 188 216 2,100 -960 Climbing New York TRACON
05:26AM 41.1272 -73.7522 150° Southeast 162 186 1,300 -960 Descending FlightAware ADS-B
05:26AM 41.1100 -73.7380 148° Southeast 161 185 1,300 -180 Level FlightAware
05:26AM 41.1167 -73.7333 143° Southeast 147 169 1,200 -660 Descending New York TRACON
05:27AM 41.0833 -73.7167 159° South 119 137 700 -600 Descending New York TRACON
05:29AM 41.0667 -73.7000 242° Southwest  Level FlightAware Approximate
05:29AM 41.0669 -73.7076 242° Southwest  Level Estimated
05:30AM 41.0667 -73.7000 242° Southwest  Level FlightAware Approximate
05:31AM 41.0669 -73.7076 242° Southwest  Level Estimated
05:36AM 41.0669 -73.7076 242° Southwest  Level Estimated